Pagina principale
METAR-TAF:

METAR-TAF

Aeroporti :

Aeroporto di N'Djamena-Hassan Djamous

N'Djamena, Ciad

latitudine: 12-08N, longitudine: 015-02E, altezza: 295 m

Osservazione

Il bollettino è stato emesso 56 minuti fa, alle 22:00 UTC
Vento 3 kt da sud-est
Temperature 27°C
Umidità 84%
Pressione 1013 hPa
Visibilità 10 km o più
nessuna nube inferiore a 1500 m e nessun cumulonembo

METAR: FTTJ 152200Z 13003KT CAVOK 27/24 Q1013 NOSIG

Ora: 23:56 (22:56 UTC)

Previsione

Il bollettino è stato emesso 5 ore e 56 minuti fa, alle 17:00 UTC
Previsione valida dal 15 alle 18 UTC al 16 alle 24 UTC
Vento 6 kt da sud-ovest
Visibilità 10 km o più
Poco nuvoloso ad un'altezza di 3000 ft
Probabilità 30% :
Temporaneamente
dal 15 alle 22 UTC al 16 alle 04 UTC
Visibilità: 4000 m
temporale, pioggia
Temporaneamente
dal 16 alle 16 UTC al 16 alle 22 UTC
Visibilità: 4000 m
temporale, pioggia

TAF: FTTJ 151700Z 1518/1624 22006KT 9999 FEW030 PROB30 TEMPO 1522/1604 4000 TSRA TEMPO 1616/1622 4000 TSRA

Osservazioni e previsioni meteorologiche di più di 4000 aeroporti (messaggi METAR e TAF).

Le stazioni disponibili sono rappresentate dai dischi gialli e rossi sulla carta.

Puntare il mouse per vedere il nome della stazione.

Clicca sopra per visualizzare le osservazioni e previsioni meteorologiche.

Per cambiare la mappa : fare clic sui pulsanti verdi con una croce nera per ingrandire, il pulsante verde con un trattino per diminuire, o sulla freccia verde per le mappe adiacenti.


METAR-TAF: